createdAt,value
2022-10-07T00:00:43.040Z,100.00
2022-10-07T00:02:45.655Z,100.00
2022-10-07T00:04:48.238Z,100.00
2022-10-07T00:06:50.993Z,100.00
2022-10-07T00:08:54.600Z,100.00
2022-10-07T00:10:57.294Z,100.00
2022-10-07T00:13:02.203Z,100.00
2022-10-07T00:15:05.739Z,100.00
2022-10-07T00:17:08.366Z,100.00
2022-10-07T00:19:13.027Z,100.00
2022-10-07T00:21:17.377Z,100.00
2022-10-07T00:23:19.942Z,100.00
2022-10-07T00:25:22.632Z,100.00
2022-10-07T00:27:25.296Z,100.00
2022-10-07T00:29:29.349Z,100.00
2022-10-07T00:31:34.165Z,100.00
2022-10-07T00:33:38.381Z,100.00
2022-10-07T00:35:40.992Z,100.00
2022-10-07T00:37:43.883Z,100.00
2022-10-07T00:39:46.783Z,100.00
2022-10-07T00:41:51.303Z,100.00
2022-10-07T00:43:53.207Z,100.00
2022-10-07T00:46:00.729Z,100.00
2022-10-07T00:48:03.451Z,100.00
2022-10-07T00:50:09.637Z,100.00
2022-10-07T00:52:13.347Z,100.00
2022-10-07T00:54:18.129Z,100.00
2022-10-07T00:56:20.800Z,100.00
2022-10-07T00:58:24.054Z,100.00
2022-10-07T01:00:26.609Z,100.00
2022-10-07T01:02:31.135Z,100.00
2022-10-07T01:04:34.395Z,100.00
2022-10-07T01:06:39.145Z,100.00
2022-10-07T01:08:43.190Z,100.00
2022-10-07T01:10:52.241Z,100.00
2022-10-07T01:13:05.439Z,100.00
2022-10-07T01:15:13.757Z,100.00
2022-10-07T01:17:26.447Z,100.00
2022-10-07T01:19:45.875Z,100.00
2022-10-07T01:22:00.646Z,100.00
2022-10-07T01:24:16.168Z,100.00
2022-10-07T01:26:57.299Z,100.00
2022-10-07T01:29:03.955Z,100.00
2022-10-07T01:31:08.272Z,100.00
2022-10-07T01:33:12.373Z,100.00
2022-10-07T01:35:18.912Z,100.00
2022-10-07T01:37:25.035Z,100.00
2022-10-07T01:39:32.773Z,100.00
2022-10-07T01:41:38.480Z,100.00
2022-10-07T01:43:43.336Z,100.00
2022-10-07T01:45:47.905Z,100.00
2022-10-07T01:47:51.020Z,100.00
2022-10-07T01:49:53.669Z,100.00
2022-10-07T01:52:13.962Z,100.00
2022-10-07T01:54:29.032Z,100.00
2022-10-07T01:56:47.236Z,100.00
2022-10-07T01:59:05.382Z,100.00
2022-10-07T02:01:18.291Z,100.00
2022-10-07T02:03:33.819Z,100.00
2022-10-07T02:05:46.301Z,100.00
2022-10-07T02:08:04.568Z,100.00
2022-10-07T02:10:15.903Z,100.00
2022-10-07T02:12:25.050Z,100.00
2022-10-07T02:14:38.409Z,100.00
2022-10-07T02:16:43.974Z,100.00
2022-10-07T02:18:50.436Z,100.00
2022-10-07T02:20:55.619Z,100.00
2022-10-07T02:23:00.755Z,100.00
2022-10-07T02:25:04.123Z,100.00
2022-10-07T02:27:11.789Z,100.00
2022-10-07T02:29:17.177Z,100.00
2022-10-07T02:31:24.609Z,100.00
2022-10-07T02:33:30.049Z,100.00
2022-10-07T02:35:38.640Z,100.00
2022-10-07T02:37:44.778Z,100.00
2022-10-07T02:39:47.706Z,100.00
2022-10-07T02:41:54.823Z,100.00
2022-10-07T02:44:03.957Z,100.00
2022-10-07T02:46:10.834Z,100.00
2022-10-07T02:48:21.422Z,100.00
2022-10-07T02:50:27.324Z,100.00
2022-10-07T02:52:33.049Z,100.00
2022-10-07T02:54:40.139Z,100.00
2022-10-07T02:56:43.762Z,100.00
2022-10-07T02:58:47.760Z,100.00
2022-10-07T03:00:53.041Z,100.00
2022-10-07T03:02:57.990Z,100.00
2022-10-07T03:05:02.045Z,100.00
2022-10-07T03:07:05.324Z,100.00
2022-10-07T03:09:07.941Z,100.00
2022-10-07T03:11:11.223Z,100.00
2022-10-07T03:13:15.529Z,100.00
2022-10-07T03:15:18.406Z,100.00
2022-10-07T03:17:21.209Z,100.00
2022-10-07T03:19:23.912Z,100.00
2022-10-07T03:21:27.911Z,100.00
2022-10-07T03:23:31.379Z,100.00
2022-10-07T03:25:36.480Z,100.00
2022-10-07T03:27:39.486Z,100.00
2022-10-07T03:29:42.159Z,100.00
2022-10-07T03:31:44.743Z,100.00
2022-10-07T03:33:47.375Z,100.00
2022-10-07T03:35:50.032Z,100.00
2022-10-07T03:37:54.156Z,100.00
2022-10-07T03:39:56.811Z,100.00
2022-10-07T03:41:59.435Z,100.00
2022-10-07T03:44:02.044Z,100.00
2022-10-07T03:46:04.789Z,100.00
2022-10-07T03:48:07.403Z,100.00
2022-10-07T03:50:10.429Z,100.00
2022-10-07T03:52:13.041Z,100.00
2022-10-07T03:54:17.179Z,100.00
2022-10-07T03:56:19.781Z,100.00
2022-10-07T03:58:22.641Z,100.00
2022-10-07T04:00:27.777Z,100.00
2022-10-07T04:02:30.490Z,100.00
2022-10-07T04:04:33.194Z,100.00
2022-10-07T04:06:35.903Z,100.00
2022-10-07T04:08:40.623Z,100.00
2022-10-07T04:10:44.549Z,100.00
2022-10-07T04:12:48.561Z,100.00
2022-10-07T04:14:51.348Z,100.00
2022-10-07T04:16:53.955Z,100.00
2022-10-07T04:18:56.846Z,100.00
2022-10-07T04:21:00.151Z,100.00
2022-10-07T04:23:02.732Z,100.00
2022-10-07T04:25:24.011Z,100.00
2022-10-07T04:27:50.518Z,100.00
2022-10-07T04:29:51.800Z,100.00
2022-10-07T04:31:54.841Z,100.00
2022-10-07T04:33:57.579Z,100.00
2022-10-07T04:36:05.507Z,100.00
2022-10-07T04:38:10.736Z,100.00
2022-10-07T04:40:13.305Z,100.00
2022-10-07T04:42:30.067Z,100.00
2022-10-07T04:44:33.992Z,100.00
2022-10-07T04:46:36.725Z,100.00
2022-10-07T04:48:39.529Z,100.00
2022-10-07T04:50:41.155Z,100.00
2022-10-07T04:52:44.530Z,100.00
2022-10-07T04:54:47.187Z,100.00
2022-10-07T04:56:50.511Z,100.00
2022-10-07T04:58:53.162Z,100.00
2022-10-07T05:01:00.564Z,100.00
2022-10-07T05:03:03.235Z,100.00
2022-10-07T05:05:06.746Z,100.00
2022-10-07T05:07:10.445Z,100.00
2022-10-07T05:09:13.105Z,100.00
2022-10-07T05:11:15.881Z,100.00
2022-10-07T05:13:18.608Z,100.00
2022-10-07T05:15:21.218Z,100.00
2022-10-07T05:17:25.690Z,100.00
2022-10-07T05:19:28.308Z,100.00
2022-10-07T05:21:30.907Z,100.00
2022-10-07T05:23:35.785Z,100.00
2022-10-07T05:25:38.583Z,100.00
2022-10-07T05:27:41.368Z,100.00
2022-10-07T05:29:43.999Z,100.00
2022-10-07T05:31:46.729Z,100.00
2022-10-07T05:33:50.739Z,100.00
2022-10-07T05:35:53.348Z,100.00
2022-10-07T05:37:56.232Z,100.00
2022-10-07T05:39:58.917Z,100.00
2022-10-07T05:42:01.716Z,100.00
2022-10-07T05:44:04.401Z,100.00
2022-10-07T05:46:08.867Z,100.00
2022-10-07T05:48:12.300Z,100.00
2022-10-07T05:50:16.604Z,100.00
2022-10-07T05:52:21.140Z,100.00
2022-10-07T05:54:24.295Z,100.00
2022-10-07T05:56:26.930Z,100.00
2022-10-07T05:58:29.549Z,100.00
2022-10-07T06:00:32.229Z,100.00
2022-10-07T06:02:36.231Z,100.00
2022-10-07T06:04:38.965Z,100.00
2022-10-07T06:06:42.935Z,100.00
2022-10-07T06:08:45.853Z,100.00
2022-10-07T06:11:07.400Z,100.00
2022-10-07T06:13:09.563Z,100.00
2022-10-07T06:15:12.730Z,100.00
2022-10-07T06:17:16.410Z,100.00
2022-10-07T06:19:22.608Z,100.00
2022-10-07T06:21:28.180Z,100.00
2022-10-07T06:23:33.400Z,100.00
2022-10-07T06:25:36.009Z,100.00
2022-10-07T06:27:38.691Z,100.00
2022-10-07T06:29:42.338Z,100.00
2022-10-07T06:31:46.200Z,100.00
2022-10-07T06:33:49.300Z,100.00
2022-10-07T06:35:59.789Z,100.00
2022-10-07T06:38:06.248Z,100.00
2022-10-07T06:40:11.878Z,100.00
2022-10-07T06:42:14.689Z,100.00
2022-10-07T06:44:17.304Z,100.00
2022-10-07T06:46:21.333Z,100.00
2022-10-07T06:48:24.068Z,100.00
2022-10-07T06:50:26.865Z,100.00
2022-10-07T06:52:29.598Z,100.00
2022-10-07T06:54:32.241Z,100.00
2022-10-07T06:56:36.219Z,100.00
2022-10-07T06:58:38.851Z,100.00
2022-10-07T07:00:41.540Z,100.00
2022-10-07T07:02:44.690Z,100.00
2022-10-07T07:04:47.398Z,100.00
2022-10-07T07:06:50.096Z,100.00
2022-10-07T07:08:52.729Z,100.00
2022-10-07T07:10:55.559Z,100.00
2022-10-07T07:15:08.611Z,100.00
2022-10-07T07:17:11.334Z,100.00
2022-10-07T07:19:15.377Z,100.00
2022-10-07T07:21:17.967Z,100.00
2022-10-07T07:23:20.619Z,100.00
2022-10-07T07:25:23.223Z,100.00
2022-10-07T07:27:25.885Z,100.00
2022-10-07T07:29:29.939Z,100.00
2022-10-07T07:31:34.445Z,100.00
2022-10-07T07:33:38.419Z,100.00
2022-10-07T07:35:43.424Z,100.00
2022-10-07T07:37:47.673Z,100.00
2022-10-07T07:39:50.755Z,100.00
2022-10-07T07:41:53.814Z,100.00
2022-10-07T07:43:59.117Z,100.00
2022-10-07T07:46:03.549Z,100.00
2022-10-07T07:48:06.259Z,100.00
2022-10-07T07:50:09.942Z,100.00
2022-10-07T07:52:12.618Z,100.00
2022-10-07T07:54:15.917Z,100.00
2022-10-07T07:56:19.644Z,100.00
2022-10-07T07:58:22.779Z,100.00
2022-10-07T08:00:25.413Z,99.35
2022-10-07T08:02:29.514Z,98.65
2022-10-07T08:04:32.281Z,97.35
2022-10-07T08:06:34.994Z,97.03
2022-10-07T08:08:37.637Z,96.08
2022-10-07T08:10:42.797Z,92.93
2022-10-07T08:12:45.452Z,92.74
2022-10-07T08:14:48.127Z,92.35
2022-10-07T08:16:51.376Z,90.68
2022-10-07T08:18:56.612Z,90.45
2022-10-07T08:21:00.020Z,88.41
2022-10-07T08:23:02.781Z,87.30
2022-10-07T08:25:06.093Z,87.48
2022-10-07T08:27:08.694Z,86.90
2022-10-07T08:29:11.332Z,84.53
2022-10-07T08:31:17.137Z,86.45
2022-10-07T08:33:20.652Z,83.80
2022-10-07T08:35:24.619Z,82.19
2022-10-07T08:37:27.261Z,80.10
2022-10-07T08:39:31.075Z,80.93
2022-10-07T08:41:53.811Z,82.00
2022-10-07T08:44:00.997Z,80.31
2022-10-07T08:46:05.924Z,80.09
2022-10-07T08:48:14.118Z,76.19
2022-10-07T08:50:21.588Z,75.10
2022-10-07T08:52:33.581Z,73.36
2022-10-07T08:54:36.192Z,72.68
2022-10-07T08:56:38.924Z,75.68
2022-10-07T08:58:55.990Z,74.47
2022-10-07T09:01:04.274Z,73.82
2022-10-07T09:03:15.596Z,71.94
2022-10-07T09:05:23.437Z,70.45
2022-10-07T09:07:34.995Z,71.39
2022-10-07T09:09:42.172Z,70.81
2022-10-07T09:11:47.934Z,66.88
2022-10-07T09:13:55.556Z,64.74
2022-10-07T09:16:01.029Z,69.47
2022-10-07T09:18:10.275Z,69.56
2022-10-07T09:20:16.756Z,58.47
2022-10-07T09:22:21.293Z,63.43
2022-10-07T09:24:28.112Z,60.39
2022-10-07T09:26:31.144Z,64.20
2022-10-07T09:28:34.513Z,62.72
2022-10-07T09:30:37.163Z,64.16
2022-10-07T09:32:42.051Z,64.66
2022-10-07T09:34:44.890Z,59.80
2022-10-07T09:37:14.007Z,64.74
2022-10-07T09:39:23.585Z,59.73
2022-10-07T09:41:32.104Z,61.59
2022-10-07T09:43:35.971Z,67.88
2022-10-07T09:45:39.932Z,62.65
2022-10-07T09:47:43.035Z,65.48
2022-10-07T09:49:51.409Z,64.28
2022-10-07T09:52:00.130Z,63.38
2022-10-07T09:54:05.176Z,61.29
2022-10-07T09:56:28.734Z,60.31
2022-10-07T09:58:33.507Z,60.29
2022-10-07T10:00:43.882Z,67.40
2022-10-07T10:02:50.065Z,70.26
2022-10-07T10:04:53.508Z,59.86
2022-10-07T10:06:59.795Z,59.92
2022-10-07T10:09:02.257Z,56.78
2022-10-07T10:11:07.249Z,56.35
2022-10-07T10:13:29.023Z,62.70
2022-10-07T10:15:42.547Z,65.04
2022-10-07T10:17:45.277Z,60.76
2022-10-07T10:19:47.902Z,65.14
2022-10-07T10:21:52.737Z,66.68
2022-10-07T10:23:58.029Z,63.63
2022-10-07T10:26:31.131Z,66.10
2022-10-07T10:28:44.890Z,69.60
2022-10-07T10:30:55.737Z,70.83
2022-10-07T10:33:20.101Z,73.68
2022-10-07T10:35:27.224Z,78.17
2022-10-07T10:37:44.103Z,80.68
2022-10-07T10:39:57.976Z,78.42
2022-10-07T10:42:05.480Z,80.50
2022-10-07T10:44:22.445Z,81.09
2022-10-07T10:46:40.451Z,80.97
2022-10-07T10:48:44.685Z,81.61
2022-10-07T10:50:58.699Z,80.83
2022-10-07T10:53:14.467Z,83.04
2022-10-07T10:55:28.134Z,81.54
2022-10-07T10:57:39.106Z,82.30
2022-10-07T10:59:58.695Z,80.53
2022-10-07T11:02:19.987Z,80.31
2022-10-07T11:04:38.423Z,81.96
2022-10-07T11:06:44.513Z,83.42
2022-10-07T11:08:49.008Z,82.83
2022-10-07T11:10:57.080Z,84.76
2022-10-07T11:13:08.619Z,83.79
2022-10-07T11:15:19.491Z,85.54
2022-10-07T11:17:30.209Z,83.15
2022-10-07T11:19:37.432Z,85.71
2022-10-07T11:21:44.300Z,84.40
2022-10-07T11:23:54.767Z,84.96
2022-10-07T11:26:03.456Z,82.57
2022-10-07T11:28:17.954Z,84.11
2022-10-07T11:30:23.331Z,83.66
2022-10-07T11:32:32.126Z,84.16
2022-10-07T11:34:44.464Z,82.93
2022-10-07T11:36:54.489Z,82.85
2022-10-07T11:38:57.074Z,83.30
2022-10-07T11:41:04.268Z,82.48
2022-10-07T11:43:15.386Z,83.88
2022-10-07T11:45:23.468Z,82.89
2022-10-07T11:47:36.130Z,84.70
2022-10-07T11:49:43.238Z,83.11
2022-10-07T11:51:54.246Z,82.44
2022-10-07T11:54:02.953Z,82.73
2022-10-07T11:56:16.322Z,82.08
2022-10-07T11:58:25.368Z,81.67
2022-10-07T12:00:31.650Z,82.62
2022-10-07T12:02:49.561Z,78.57
2022-10-07T12:04:52.455Z,77.89
2022-10-07T12:07:32.543Z,76.13
2022-10-07T12:09:54.950Z,75.59
2022-10-07T12:11:57.769Z,76.72
2022-10-07T12:14:44.096Z,76.77
2022-10-07T12:16:56.158Z,76.35
2022-10-07T12:19:20.945Z,74.61
2022-10-07T12:21:25.863Z,75.47
2022-10-07T12:23:49.485Z,73.67
2022-10-07T12:25:53.705Z,76.07
2022-10-07T12:27:57.062Z,75.08
2022-10-07T12:30:02.455Z,76.54
2022-10-07T12:32:46.386Z,73.41
2022-10-07T12:34:49.314Z,76.52
2022-10-07T12:36:52.054Z,75.47
2022-10-07T12:39:27.009Z,74.85
2022-10-07T12:41:30.820Z,72.58
2022-10-07T12:43:47.274Z,70.84
2022-10-07T12:45:50.858Z,70.67
2022-10-07T12:47:59.040Z,76.89
2022-10-07T12:50:04.838Z,80.05
2022-10-07T12:52:12.608Z,73.26
2022-10-07T12:54:20.166Z,76.99
2022-10-07T12:56:28.140Z,76.80
2022-10-07T12:59:13.984Z,80.04
2022-10-07T13:01:33.576Z,81.19
2022-10-07T13:04:10.314Z,74.21
2022-10-07T13:06:47.616Z,75.44
2022-10-07T13:09:24.900Z,75.16
2022-10-07T13:12:04.101Z,79.85
2022-10-07T13:14:18.429Z,76.68
2022-10-07T13:16:31.882Z,75.18
2022-10-07T13:18:41.706Z,74.71
2022-10-07T13:21:00.946Z,74.91
2022-10-07T13:23:12.087Z,76.39
2022-10-07T13:25:15.937Z,78.27
2022-10-07T13:27:21.109Z,74.52
2022-10-07T13:29:25.707Z,74.45
2022-10-07T13:31:30.875Z,72.37
2022-10-07T13:33:34.174Z,75.65
2022-10-07T13:35:39.686Z,74.72
2022-10-07T13:37:48.034Z,74.99
2022-10-07T13:39:50.774Z,73.19
2022-10-07T13:41:56.330Z,76.04
2022-10-07T13:44:01.582Z,75.32
2022-10-07T13:46:07.112Z,75.52
2022-10-07T13:48:17.020Z,75.72
2022-10-07T13:50:23.468Z,72.24
2022-10-07T13:52:30.307Z,77.59
2022-10-07T13:54:35.219Z,77.50
2022-10-07T13:56:40.803Z,79.01
2022-10-07T13:58:43.651Z,78.21
2022-10-07T14:00:48.912Z,80.71
2022-10-07T14:02:52.679Z,81.37
2022-10-07T14:05:02.092Z,80.08
2022-10-07T14:07:16.721Z,79.81
2022-10-07T14:09:22.802Z,80.09
2022-10-07T14:11:26.914Z,78.88
2022-10-07T14:13:30.273Z,79.25
2022-10-07T14:15:36.265Z,80.67
2022-10-07T14:17:44.120Z,82.27
2022-10-07T14:19:53.473Z,83.51
2022-10-07T14:21:56.174Z,83.83
2022-10-07T14:23:58.908Z,84.61
2022-10-07T14:26:04.273Z,85.85
2022-10-07T14:28:17.795Z,83.79
2022-10-07T14:30:56.481Z,84.35
2022-10-07T14:33:32.842Z,84.13
2022-10-07T14:35:37.018Z,85.26
2022-10-07T14:37:39.813Z,86.33
2022-10-07T14:39:44.150Z,86.28
2022-10-07T14:41:46.861Z,88.03
2022-10-07T14:43:52.964Z,86.89
2022-10-07T14:45:55.701Z,86.67
2022-10-07T14:47:58.551Z,87.15
2022-10-07T14:50:01.655Z,86.53
2022-10-07T14:52:06.226Z,88.78
2022-10-07T14:54:09.176Z,88.19
2022-10-07T14:56:15.480Z,89.20
2022-10-07T14:58:18.152Z,89.28
2022-10-07T15:00:24.099Z,89.12
2022-10-07T15:02:27.399Z,89.92
2022-10-07T15:04:30.258Z,87.55
2022-10-07T15:06:34.716Z,86.61
2022-10-07T15:08:37.355Z,87.06
2022-10-07T15:10:41.177Z,88.12
2022-10-07T15:12:44.972Z,88.23
2022-10-07T15:14:47.985Z,87.80
2022-10-07T15:16:52.026Z,88.97
2022-10-07T15:18:55.138Z,88.72
2022-10-07T15:20:58.639Z,89.43
2022-10-07T15:23:02.604Z,91.50
2022-10-07T15:25:06.554Z,89.61
2022-10-07T15:27:09.982Z,89.19
2022-10-07T15:29:13.313Z,89.86
2022-10-07T15:31:17.641Z,91.63
2022-10-07T15:33:21.983Z,92.36
2022-10-07T15:35:26.976Z,93.12
2022-10-07T15:37:29.821Z,93.66
2022-10-07T15:39:37.450Z,93.57
2022-10-07T15:41:43.741Z,93.94
2022-10-07T15:43:46.570Z,93.81
2022-10-07T15:45:51.383Z,94.90
2022-10-07T15:47:59.545Z,95.81
2022-10-07T15:50:05.017Z,96.35
2022-10-07T15:52:09.101Z,96.02
2022-10-07T15:54:12.153Z,96.99
2022-10-07T15:56:14.964Z,96.42
2022-10-07T15:58:17.893Z,97.33
2022-10-07T16:00:21.801Z,97.94
2022-10-07T16:02:24.871Z,96.48
2022-10-07T16:04:28.412Z,98.46
2022-10-07T16:06:34.801Z,98.89
2022-10-07T16:08:37.676Z,99.02
2022-10-07T16:10:40.275Z,99.74
2022-10-07T16:12:43.281Z,100.00
2022-10-07T16:14:47.373Z,100.00
2022-10-07T16:16:50.741Z,100.00
2022-10-07T16:18:54.638Z,100.00
2022-10-07T16:20:57.333Z,100.00
2022-10-07T16:23:01.514Z,100.00
2022-10-07T16:25:04.290Z,100.00
2022-10-07T16:27:06.938Z,100.00
2022-10-07T16:29:31.810Z,100.00
2022-10-07T16:31:36.679Z,100.00
2022-10-07T16:33:39.431Z,100.00
2022-10-07T16:35:42.241Z,100.00
2022-10-07T16:37:47.818Z,100.00
2022-10-07T16:39:56.241Z,100.00
2022-10-07T16:41:59.801Z,100.00
2022-10-07T16:44:04.239Z,100.00
2022-10-07T16:46:09.270Z,100.00
2022-10-07T16:48:17.280Z,100.00
2022-10-07T16:50:20.942Z,100.00
2022-10-07T16:52:25.520Z,100.00
2022-10-07T16:54:30.000Z,100.00
2022-10-07T16:56:36.435Z,100.00
2022-10-07T16:58:39.962Z,100.00
2022-10-07T17:00:42.784Z,100.00
2022-10-07T17:02:45.586Z,100.00
2022-10-07T17:04:48.315Z,100.00
2022-10-07T17:06:51.241Z,100.00
2022-10-07T17:08:55.965Z,100.00
2022-10-07T17:10:58.806Z,100.00
2022-10-07T17:13:04.155Z,100.00
2022-10-07T17:15:07.327Z,100.00
2022-10-07T17:17:10.516Z,100.00
2022-10-07T17:19:14.855Z,100.00
2022-10-07T17:21:18.878Z,100.00
2022-10-07T17:23:25.910Z,100.00
2022-10-07T17:25:28.551Z,100.00
2022-10-07T17:27:31.185Z,100.00
2022-10-07T17:29:38.441Z,100.00
2022-10-07T17:31:42.582Z,100.00
2022-10-07T17:33:45.456Z,100.00
2022-10-07T17:35:48.119Z,100.00
2022-10-07T17:37:50.986Z,100.00
2022-10-07T17:39:53.587Z,100.00
2022-10-07T17:41:57.309Z,100.00
2022-10-07T17:44:01.586Z,100.00
2022-10-07T17:46:09.096Z,100.00
2022-10-07T17:48:15.368Z,100.00
2022-10-07T17:50:18.076Z,100.00
2022-10-07T17:52:25.180Z,100.00
2022-10-07T17:54:29.886Z,100.00
2022-10-07T17:56:34.201Z,100.00
2022-10-07T17:58:38.195Z,100.00
2022-10-07T18:00:40.937Z,100.00
2022-10-07T18:02:45.011Z,100.00
2022-10-07T18:04:47.613Z,100.00
2022-10-07T18:06:50.436Z,100.00
2022-10-07T18:08:53.380Z,100.00
2022-10-07T18:10:56.047Z,100.00
2022-10-07T18:13:16.600Z,100.00
2022-10-07T18:15:21.184Z,100.00
2022-10-07T18:17:24.447Z,100.00
2022-10-07T18:19:29.508Z,100.00
2022-10-07T18:21:32.535Z,100.00
2022-10-07T18:23:36.429Z,100.00
2022-10-07T18:25:39.621Z,100.00
2022-10-07T18:27:43.456Z,100.00
2022-10-07T18:29:46.377Z,100.00
2022-10-07T18:31:49.014Z,100.00
2022-10-07T18:33:52.221Z,100.00
2022-10-07T18:36:01.883Z,100.00
2022-10-07T18:38:04.799Z,100.00
2022-10-07T18:40:08.387Z,100.00
2022-10-07T18:42:11.117Z,100.00
2022-10-07T18:44:14.335Z,100.00
2022-10-07T18:46:19.604Z,100.00
2022-10-07T18:48:22.224Z,100.00
2022-10-07T18:50:28.127Z,100.00
2022-10-07T18:52:35.473Z,100.00
2022-10-07T18:54:38.130Z,100.00
2022-10-07T18:56:41.541Z,100.00
2022-10-07T18:58:46.932Z,100.00
2022-10-07T19:00:49.703Z,100.00
2022-10-07T19:02:52.590Z,100.00
2022-10-07T19:04:56.225Z,100.00
2022-10-07T19:06:59.048Z,100.00
2022-10-07T19:09:08.350Z,100.00
2022-10-07T19:11:13.164Z,100.00
2022-10-07T19:13:45.465Z,100.00
2022-10-07T19:15:48.089Z,100.00
2022-10-07T19:17:50.697Z,100.00
2022-10-07T19:19:53.453Z,100.00
2022-10-07T19:21:57.460Z,100.00
2022-10-07T19:24:01.568Z,100.00
2022-10-07T19:26:05.424Z,100.00
2022-10-07T19:28:08.086Z,100.00
2022-10-07T19:30:11.387Z,100.00
2022-10-07T19:32:15.006Z,100.00
2022-10-07T19:34:19.943Z,100.00
2022-10-07T19:36:23.479Z,100.00
2022-10-07T19:38:27.128Z,100.00
2022-10-07T19:40:29.939Z,100.00
2022-10-07T19:42:34.886Z,100.00
2022-10-07T19:44:38.493Z,100.00
2022-10-07T19:46:41.451Z,100.00
2022-10-07T19:48:44.279Z,100.00
2022-10-07T19:50:47.024Z,100.00
2022-10-07T19:52:50.595Z,100.00
2022-10-07T19:54:54.840Z,100.00
2022-10-07T19:56:57.646Z,100.00
2022-10-07T19:59:05.364Z,100.00
2022-10-07T20:01:10.438Z,100.00
2022-10-07T20:03:13.265Z,100.00
2022-10-07T20:05:16.116Z,100.00
2022-10-07T20:07:19.099Z,100.00
2022-10-07T20:09:22.459Z,100.00
2022-10-07T20:11:27.753Z,100.00
2022-10-07T20:13:32.608Z,100.00
2022-10-07T20:15:37.136Z,100.00
2022-10-07T20:17:39.801Z,100.00
2022-10-07T20:19:42.508Z,100.00
2022-10-07T20:21:45.345Z,100.00
2022-10-07T20:23:49.128Z,100.00
2022-10-07T20:25:51.874Z,100.00
2022-10-07T20:27:54.663Z,100.00
2022-10-07T20:30:02.309Z,100.00
2022-10-07T20:32:06.445Z,100.00
2022-10-07T20:34:12.652Z,100.00
2022-10-07T20:36:18.766Z,100.00
2022-10-07T20:38:21.473Z,100.00
2022-10-07T20:40:41.818Z,100.00
2022-10-07T20:42:46.999Z,100.00
2022-10-07T20:44:50.617Z,100.00
2022-10-07T20:46:53.312Z,100.00
2022-10-07T20:48:57.307Z,100.00
2022-10-07T20:51:08.316Z,100.00
2022-10-07T20:53:12.478Z,100.00
2022-10-07T20:55:15.314Z,100.00
2022-10-07T20:57:19.357Z,100.00
2022-10-07T20:59:22.260Z,100.00
2022-10-07T21:01:25.291Z,100.00
2022-10-07T21:03:29.730Z,100.00
2022-10-07T21:05:33.763Z,100.00
2022-10-07T21:07:36.376Z,100.00
2022-10-07T21:09:39.921Z,100.00
2022-10-07T21:11:42.578Z,100.00
2022-10-07T21:13:45.238Z,100.00
2022-10-07T21:15:47.864Z,100.00
2022-10-07T21:17:50.463Z,100.00
2022-10-07T21:19:53.256Z,100.00
2022-10-07T21:21:57.228Z,100.00
2022-10-07T21:23:59.894Z,100.00
2022-10-07T21:26:03.910Z,100.00
2022-10-07T21:28:06.572Z,100.00
2022-10-07T21:30:10.370Z,100.00
2022-10-07T21:32:13.718Z,100.00
2022-10-07T21:34:16.611Z,100.00
2022-10-07T21:36:21.104Z,100.00
2022-10-07T21:38:25.103Z,100.00
2022-10-07T21:40:30.398Z,100.00
2022-10-07T21:42:33.193Z,100.00
2022-10-07T21:44:35.805Z,100.00
2022-10-07T21:46:39.958Z,100.00
2022-10-07T21:48:42.906Z,100.00
2022-10-07T21:50:53.843Z,100.00
2022-10-07T21:52:56.501Z,100.00
2022-10-07T21:55:00.612Z,100.00
2022-10-07T21:57:04.480Z,100.00
2022-10-07T21:59:07.149Z,100.00
2022-10-07T22:01:13.594Z,100.00
2022-10-07T22:03:16.244Z,100.00
2022-10-07T22:05:18.980Z,100.00
2022-10-07T22:07:39.275Z,100.00
2022-10-07T22:09:42.028Z,100.00
2022-10-07T22:11:46.120Z,100.00
2022-10-07T22:13:51.582Z,100.00
2022-10-07T22:15:54.321Z,100.00
2022-10-07T22:17:57.334Z,100.00
2022-10-07T22:20:00.221Z,100.00
2022-10-07T22:22:02.900Z,100.00
2022-10-07T22:24:07.082Z,100.00
2022-10-07T22:26:13.481Z,100.00
2022-10-07T22:28:17.661Z,100.00
2022-10-07T22:30:21.123Z,100.00
2022-10-07T22:32:23.717Z,100.00
2022-10-07T22:34:43.695Z,100.00
2022-10-07T22:36:46.455Z,100.00
2022-10-07T22:38:49.692Z,100.00
2022-10-07T22:40:52.960Z,100.00
2022-10-07T22:42:55.646Z,100.00
2022-10-07T22:44:59.721Z,100.00
2022-10-07T22:47:02.678Z,100.00
2022-10-07T22:49:05.367Z,100.00
2022-10-07T22:51:10.361Z,100.00
2022-10-07T22:53:13.054Z,100.00
2022-10-07T22:55:16.706Z,100.00
2022-10-07T22:57:19.348Z,100.00
2022-10-07T22:59:22.119Z,100.00
2022-10-07T23:01:28.495Z,100.00
2022-10-07T23:03:31.217Z,100.00
2022-10-07T23:05:37.029Z,100.00
2022-10-07T23:07:39.721Z,100.00
2022-10-07T23:09:42.381Z,100.00
2022-10-07T23:11:45.655Z,100.00
2022-10-07T23:13:48.345Z,100.00
2022-10-07T23:15:56.293Z,100.00
2022-10-07T23:18:00.619Z,100.00
2022-10-07T23:20:03.542Z,100.00
2022-10-07T23:22:07.268Z,100.00
2022-10-07T23:24:14.366Z,100.00
2022-10-07T23:26:19.775Z,100.00
2022-10-07T23:28:23.686Z,100.00
2022-10-07T23:30:26.371Z,100.00
2022-10-07T23:32:29.008Z,100.00
2022-10-07T23:34:33.045Z,100.00
2022-10-07T23:36:35.676Z,100.00
2022-10-07T23:38:40.015Z,100.00
2022-10-07T23:40:42.662Z,100.00
2022-10-07T23:42:46.585Z,100.00
2022-10-07T23:44:49.381Z,100.00
2022-10-07T23:46:52.109Z,100.00
2022-10-07T23:48:55.841Z,100.00
2022-10-07T23:50:59.859Z,100.00
2022-10-07T23:53:02.876Z,100.00
2022-10-07T23:55:06.219Z,100.00
2022-10-07T23:57:08.882Z,100.00
2022-10-07T23:59:11.954Z,100.00
